Aktualne dane pomiarowe

Uwaga, wersja testowa! Automatyczne pobieranie danych za pomocą narzędzi lub skryptów to umożliwiających jest zabronione.

Dane meteo z obszaru Polski uzyskane na podstawie depesz SYNOP pobieranych co godzinę z NWS. Najedź myszką na symbol przedstawiony w tabeli, aby uzyskać informacje co do jego znaczenia. Prosimy pamiętać, że to testowa wersja strony, która jeszcze nie jest ukończona. Stworzono również jest krótki FAQ dotyczący korzystania z tej podstrony Anomalie temperatury w chwili obecnej odniesione są do okresu referencyjnego 1951-2016. Okres ten będzie później zmieniony na 1981-2010. Kliknij ikonę aby pobrać plik CSV. Kliknij ikonę aby wygenerować mapę synoptyczną dla danego terminu.

Wybierz Datę:    

        

Warszawa-Okęcie (12375)

Dane terminowe dla wybranej stacji. Kliknij datę, aby otrzymać dane z tego terminu dla wszystkich stacji.

TemperaturaZachmurzenieWiatrCiśnienieOpadyPogoda
 Data t td wb tx tn tg rh  Nt Nl Cl Cm Ch ws wd g1 g2 wx mslp ppp ch 24h 12h t ww ww w1 w2  
2019-07-12 23:00:00 15.7 10.3 12.3--- 7035.0wx-wxwx2wx--21009.4 996.7 -0.1---------
2019-07-12 22:00:00 17.0 10.0 12.7--- 6335.0wx-wx2wx---1009.4 996.8 0.1---------
2019-07-12 21:00:00 17.7 9.4 12.7--- 5835.0wx-wxwx1wx--11009.4 996.8 0.4---------
2019-07-12 20:00:00 18.8 9.4 13.2--- 5435.0wx-wxwx2wx--21009.3 996.8 0.7---------
2019-07-12 19:00:00 19.5 9.5 13.6--- 5235.0wx-wxwx3wx--31009.2 996.7 0.8---------
2019-07-12 18:00:00 20.9 8.9 13.9 25.3 18.4- 4635.0wx-wx5wx-1051008.8 996.4 0.3- 0.012------
2019-07-12 17:00:00 22.9 8.3 14.6--- 3935.0wxwxwxwx4wx101041008.5 996.1 -0.5---------
2019-07-12 16:00:00 24.3 7.5 14.8--- 3435.0wxwxwxwx1wx--11008.2 995.9 -0.9---------
2019-07-12 15:00:00 24.8 7.1 14.9--- 3235.0wxwxwxwx1wx-611008.4 996.1 -1.0---------
2019-07-12 14:00:00 24.1 7.3 14.7--- 3435.0wxwxwxwx2wx--21008.9 996.6 -0.8---------
2019-07-12 13:00:00 24.2 7.0 14.6--- 3335.0wxwxwxwx0--601009.1 996.8 -1.0---------
2019-07-12 12:00:00 24.1 6.9 14.5--- 3335.0wxwxwxwx1wx6611009.4 997.1 -0.8- 0.06------
2019-07-12 11:00:00 23.9 7.2 14.5--- 3435.0wxwxwxwxwx3wx--31009.7 997.4 -0.7---------
2019-07-12 10:00:00 23.5 7.2 14.4--- 3535.0wxwxwxwxwx3wx--31010.2 997.8 -0.6---------
2019-07-12 09:00:00 22.5 7.6 14.1--- 3835.0wxwxwxwxwx3wx--31010.3 997.9 -0.5---------
2019-07-12 08:00:00 21.6 7.9 13.8--- 4135.0wxwxwxwxwx3wx--31010.5 998.1 -0.3---------
2019-07-12 07:00:00 20.2 8.9 13.6--- 4835.0wx-wxwx3wx--31010.9 998.4 -0.1---------
2019-07-12 06:00:00 18.4 9.6 13.1 19.1 9.4 7 5735.0wx-wxwx2wx--21011.0 998.4 0.0- 0.012----- 2.9
2019-07-12 05:00:00 15.5 9.9 12.0--- 6935.0wx-wxwx2wx---1011.1 998.4 -0.2---------
2019-07-12 04:00:00 11.0 9.8 10.1--- 9235.0wx-wxwx0---01011.4 998.5 -0.3---------
2019-07-12 03:00:00 9.8 8.6 8.9--- 9214.0wx-wxwx0---01011.4 998.4 -0.5---wx---
2019-07-12 02:00:00 11.3 8.3 9.4--- 8235.0wx-wxwx1wx--11011.5 998.6 -0.4---------
2019-07-12 01:00:00 13.0 9.7 10.8--- 8035.0wx-wxwx0---01011.6 998.8 -0.1---------
2019-07-12 00:00:00 13.6 9.7 11.1--- 7735.0wx-wx0---01011.7 998.9 0.2- 0.06------
2019-07-11 23:00:00 14.0 9.5 11.2--- 7435.0wx-wx0---01011.8 999.0 0.5---------
2019-07-11 22:00:00 14.0 9.3 11.0--- 7335.0wx-wxwx2wx--21011.7 998.9 0.6---------
2019-07-11 21:00:00 15.8 9.3 11.8--- 6535.0wx-wxwx3wx--31011.4 998.7 0.5---------
2019-07-11 20:00:00 17.1 9.1 12.3--- 5935.0wx-wxwx2wx--21011.1 998.5 0.3---------
2019-07-11 19:00:00 18.3 8.9 12.8--- 5435.0wx-wxwx1wx--11010.9 998.3 0.1---------
2019-07-11 18:00:00 19.1 8.2 12.8 21.0 13.5- 4935.0wx-wxwx3wx--31010.7 998.2 -0.1- 0.012------
2019-07-11 17:00:00 19.7 8.2 13.1--- 4735.0wxwxwxwxwx3wx--31010.7 998.2 0.0---------
2019-07-11 16:00:00 19.9 8.0 13.1--- 4635.0wxwxwxwx5wx--51010.7 998.2 -0.2---------
2019-07-11 15:00:00 19.8 7.6 12.9--- 4535.0wxwxwxwx6wx--61010.8 998.3 -0.3---------
2019-07-11 14:00:00 20.2 8.3 13.4--- 4635.0wxwxwxwx4wx--41010.7 998.2 -0.6---------
2019-07-11 13:00:00 20.4 8.8 13.7--- 4735.0wxwxwxwx5wx--51010.9 998.4 -0.4---------
2019-07-11 12:00:00 18.1 9.3 12.9--- 5635.0wxwxwxwx5wx--51011.2 998.6 -0.5- 0.06------
2019-07-11 11:00:00 17.2 9.2 12.4--- 5935.0wxwxwxwx4wx--41011.4 998.8 0.0---------
2019-07-11 10:00:00 17.9 9.3 12.8--- 5735.0wxwxwxwx4wx--41011.4 998.8 0.1---------
2019-07-11 09:00:00 16.3 10.3 12.6--- 6835.0wxwxwxwx4wx--41011.8 999.1 0.5---------
2019-07-11 08:00:00 15.8 10.6 12.5--- 7135.0wxwxwxwx3wx--31011.5 998.8 0.4---------
2019-07-11 07:00:00 14.6 10.9 12.2--- 7835.0wxwxwxwx4wx---1011.5 998.7 0.7---------
2019-07-11 06:00:00 13.5 10.9 11.7 17.4 11.8 11 8435.0wxwxwx3wx--31011.4 998.6 0.4 1.3 1.012----- 1.9
2019-07-11 05:00:00 12.6 10.6 11.2--- 8835.0wxwxwx4wx--41011.2 998.4 0.2---------
2019-07-11 04:00:00 12.5 10.8 11.3--- 8935.0wxwxwx4wx--41010.8 998.0 -0.6---------
2019-07-11 03:00:00 12.1 10.9 11.2--- 9235.0wxwxwxwx3wx--31011.1 998.2 -0.2---------
2019-07-11 02:00:00 12.2 10.7 11.1--- 9135.0wxwxwxwx3wx--31011.1 998.2 -0.2---------
2019-07-11 01:00:00 12.2 10.7 11.1--- 9135.0wxwxwx3wx--31011.5 998.6 0.1---------
2019-07-11 00:00:00 12.3 10.5 11.1--- 8935.0wxwxwxwx3wx--31011.2 998.4 0.2- 1.06wx-w1--
1.1 ms

 

Print Friendly, PDF & Email